Airfield :
LOGIN :

Register | Disclaimer

   EN    FR    IT 

 










Legend :    VFR   Marginal VFR   IFR   Intensive IFR   Very Intensive IFR
Visi :
Ceiling :
>= 8 km
>= 3000ft
5 to 8 km
1000 to 3000 ft
1500m to 5 km
500 to 1000 ft
800 to 1500m
200 to 500 ft
< 800m
< 200 ft
Symbols :   Thunderstorms  Fog  Heavy snow  Heavy precipitations  Wind > 20 kt
SIGMETs :     Misc.  Thunderstorms  Icing  Turbulence  Mountain Waves  Volcanic Ashes






- Airport Elevation : 123 ft
- IATA code : BLQ


LIPE - Bologna Guglielmo Marconi

CURRENT METAR :
  • 141220Z 35006KT 270V040 9999 BKN055 25/13 Q1016

EXPIRED METARs :
  • 141150Z 29005KT 250V340 9999 SCT050 26/13 Q1016
  • 141120Z 33004KT 290V360 9999 SCT055 25/13 Q1016
  • 141050Z 05003KT 320V130 9999 FEW050 25/12 Q1016
  • 141020Z VRB03KT CAVOK 25/11 Q1016
  • 140950Z VRB02KT CAVOK 24/11 Q1016
  • 140920Z VRB03KT CAVOK 24/11 Q1016
  • 140850Z 13005KT 100V200 CAVOK 24/11 Q1016
  • 140820Z VRB02KT CAVOK 23/11 Q1016
  • 140750Z VRB03KT CAVOK 22/11 Q1016

TAF TAF LIPE
Valid from the 14 at 12:00 until the 15 at 12:00 UTC


141100Z 1412/1512 30010KT 9999 SCT030
BECMG 1418/1420 VRB05KT
BECMG 1507/1509 19010KT



MET'MAP, your aeronautical weather chart ! - Copyright ORBIFLY December 2007 - Disclaimer

ORBIFLY MET'MAP TEAM :

Programming & Development : Alexandra Zaïnal
Original concept : Baudouin d'Aumeries
Technical & hardware support : Manuel Goepfert
Assistance : Marc-Olivier Méhu




SOURCES & CREDITS :

   NOAA